Terminal Aerodrome Forecast
Issued by NWS

Home | Current Version | Previous Version | Text Only | Print | Product List | Glossary On
Versions: 1 2 3 4 5 6 7 8 9 10 11 12 13 14 15 16 17 18 19
000
FTUS46 KMTR 301100
TAFSNS
TAF
KSNS 301120Z 3012/3112 32003KT 1SM BR OVC003
     FM301600 32005KT P6SM SCT200
     FM301900 29009KT P6SM SCT200
     FM310400 29005KT P6SM BKN005
     FM310600 VRB03KT 3SM BR OVC003=

USA.gov is the U.S. government's official web portal to all federal, state and local government web resources and services.